Aldar, Mongolia
Current Conditions -  °F | °C
As of 5:00 PM on Saturday 25 Oct 2014 (Local Time) from UIII Reporting Station
Clear Clear  
Wind Chill: 19°   Ceiling: Unl
Heat Index: 25°   Visibility: 6mi
Dew Point: 14°   Wind: 4mph
Humidity: 64%   Direction: 110°ESE
Pressure: 30.39"   Gusts: NA
Location:  47.7°N, 96.6°E
Report Text: UIII 250900Z 11002MPS 090V160 CAVOK M04/M10 Q1029 NOSIG RMKQFE726/0969 30920260
Loading
Personal Weather Stations






























Interactive Weather Map
Tropical Storm Tracking
New forecast layout! Learn more

10-Day Weather Forecast

Advertisements
Track Severe Weather on mobile